sensor_id;sensor_type;location;lat;lon;timestamp;P1;durP1;ratioP1;P2;durP2;ratioP2
9773;SDS011;4926;42.670;23.316;2023-11-18T00:01:00;0.82;;;0.82;;
9773;SDS011;4926;42.670;23.316;2023-11-18T00:03:32;0.90;;;0.90;;
9773;SDS011;4926;42.670;23.316;2023-11-18T00:05:59;1.05;;;0.95;;
9773;SDS011;4926;42.670;23.316;2023-11-18T00:08:26;1.00;;;0.90;;
9773;SDS011;4926;42.670;23.316;2023-11-18T00:10:53;0.88;;;0.88;;
9773;SDS011;4926;42.670;23.316;2023-11-18T00:13:20;1.05;;;1.00;;
9773;SDS011;4926;42.670;23.316;2023-11-18T00:15:47;0.98;;;0.90;;
9773;SDS011;4926;42.670;23.316;2023-11-18T00:18:14;1.08;;;1.00;;
9773;SDS011;4926;42.670;23.316;2023-11-18T00:20:43;0.80;;;0.80;;
9773;SDS011;4926;42.670;23.316;2023-11-18T00:23:10;1.00;;;0.90;;
9773;SDS011;4926;42.670;23.316;2023-11-18T00:25:38;0.70;;;0.70;;
9773;SDS011;4926;42.670;23.316;2023-11-18T00:28:05;1.33;;;1.00;;
9773;SDS011;4926;42.670;23.316;2023-11-18T00:30:33;1.15;;;0.80;;
9773;SDS011;4926;42.670;23.316;2023-11-18T00:33:00;1.00;;;0.90;;
9773;SDS011;4926;42.670;23.316;2023-11-18T00:35:27;0.77;;;0.77;;
9773;SDS011;4926;42.670;23.316;2023-11-18T00:37:58;1.02;;;0.93;;
9773;SDS011;4926;42.670;23.316;2023-11-18T00:40:25;0.90;;;0.80;;
9773;SDS011;4926;42.670;23.316;2023-11-18T00:42:56;0.85;;;0.85;;
9773;SDS011;4926;42.670;23.316;2023-11-18T00:45:23;1.15;;;1.05;;
9773;SDS011;4926;42.670;23.316;2023-11-18T00:47:50;0.93;;;0.93;;
9773;SDS011;4926;42.670;23.316;2023-11-18T00:50:17;1.00;;;1.00;;
9773;SDS011;4926;42.670;23.316;2023-11-18T00:52:44;1.20;;;1.10;;
9773;SDS011;4926;42.670;23.316;2023-11-18T00:55:16;1.10;;;1.00;;
9773;SDS011;4926;42.670;23.316;2023-11-18T00:57:44;1.30;;;1.20;;
9773;SDS011;4926;42.670;23.316;2023-11-18T01:00:11;1.20;;;1.10;;
9773;SDS011;4926;42.670;23.316;2023-11-18T01:02:44;1.20;;;1.10;;
9773;SDS011;4926;42.670;23.316;2023-11-18T01:05:12;1.30;;;1.20;;
9773;SDS011;4926;42.670;23.316;2023-11-18T01:07:41;1.27;;;1.17;;
9773;SDS011;4926;42.670;23.316;2023-11-18T01:10:09;1.20;;;1.10;;
9773;SDS011;4926;42.670;23.316;2023-11-18T01:12:38;1.40;;;1.30;;
9773;SDS011;4926;42.670;23.316;2023-11-18T01:15:05;1.05;;;1.02;;
9773;SDS011;4926;42.670;23.316;2023-11-18T01:17:32;1.20;;;1.10;;
9773;SDS011;4926;42.670;23.316;2023-11-18T01:19:59;1.08;;;1.05;;
9773;SDS011;4926;42.670;23.316;2023-11-18T01:22:28;1.40;;;1.30;;
9773;SDS011;4926;42.670;23.316;2023-11-18T01:24:55;1.50;;;1.40;;
9773;SDS011;4926;42.670;23.316;2023-11-18T01:27:23;1.60;;;1.50;;
9773;SDS011;4926;42.670;23.316;2023-11-18T01:29:51;1.52;;;1.30;;
9773;SDS011;4926;42.670;23.316;2023-11-18T01:32:19;1.80;;;1.70;;
9773;SDS011;4926;42.670;23.316;2023-11-18T01:34:45;2.05;;;1.85;;
9773;SDS011;4926;42.670;23.316;2023-11-18T01:37:15;1.50;;;1.40;;
9773;SDS011;4926;42.670;23.316;2023-11-18T01:39:42;1.83;;;1.50;;
9773;SDS011;4926;42.670;23.316;2023-11-18T01:42:09;1.60;;;1.50;;
9773;SDS011;4926;42.670;23.316;2023-11-18T01:44:36;2.00;;;1.70;;
9773;SDS011;4926;42.670;23.316;2023-11-18T01:47:05;1.60;;;1.50;;
9773;SDS011;4926;42.670;23.316;2023-11-18T01:49:36;1.80;;;1.70;;
9773;SDS011;4926;42.670;23.316;2023-11-18T01:52:05;1.55;;;1.45;;
9773;SDS011;4926;42.670;23.316;2023-11-18T01:54:34;1.60;;;1.50;;
9773;SDS011;4926;42.670;23.316;2023-11-18T01:57:03;2.00;;;1.80;;
9773;SDS011;4926;42.670;23.316;2023-11-18T01:59:31;1.60;;;1.50;;
9773;SDS011;4926;42.670;23.316;2023-11-18T02:01:59;1.50;;;1.40;;
9773;SDS011;4926;42.670;23.316;2023-11-18T02:04:29;1.50;;;1.40;;
9773;SDS011;4926;42.670;23.316;2023-11-18T02:06:56;2.05;;;1.40;;
9773;SDS011;4926;42.670;23.316;2023-11-18T02:09:28;3.97;;;1.50;;
9773;SDS011;4926;42.670;23.316;2023-11-18T02:11:56;2.22;;;1.60;;
9773;SDS011;4926;42.670;23.316;2023-11-18T02:14:35;1.70;;;1.60;;
9773;SDS011;4926;42.670;23.316;2023-11-18T02:17:05;1.63;;;1.40;;
9773;SDS011;4926;42.670;23.316;2023-11-18T02:19:40;1.67;;;1.58;;
9773;SDS011;4926;42.670;23.316;2023-11-18T02:22:14;1.75;;;1.65;;
9773;SDS011;4926;42.670;23.316;2023-11-18T02:24:44;1.85;;;1.75;;
9773;SDS011;4926;42.670;23.316;2023-11-18T02:27:13;1.88;;;1.73;;
9773;SDS011;4926;42.670;23.316;2023-11-18T02:29:40;2.15;;;1.95;;
9773;SDS011;4926;42.670;23.316;2023-11-18T02:32:14;2.75;;;1.88;;
9773;SDS011;4926;42.670;23.316;2023-11-18T02:34:49;2.10;;;2.00;;
9773;SDS011;4926;42.670;23.316;2023-11-18T02:37:25;2.00;;;1.90;;
9773;SDS011;4926;42.670;23.316;2023-11-18T02:40:03;2.20;;;2.00;;
9773;SDS011;4926;42.670;23.316;2023-11-18T02:42:35;2.00;;;1.83;;
9773;SDS011;4926;42.670;23.316;2023-11-18T02:45:03;2.45;;;2.25;;
9773;SDS011;4926;42.670;23.316;2023-11-18T02:47:33;1.70;;;1.60;;
9773;SDS011;4926;42.670;23.316;2023-11-18T02:50:00;2.03;;;1.90;;
9773;SDS011;4926;42.670;23.316;2023-11-18T02:52:35;2.50;;;2.30;;
9773;SDS011;4926;42.670;23.316;2023-11-18T02:55:03;1.88;;;1.77;;
9773;SDS011;4926;42.670;23.316;2023-11-18T02:57:33;2.40;;;2.20;;
9773;SDS011;4926;42.670;23.316;2023-11-18T03:00:01;2.33;;;2.13;;
9773;SDS011;4926;42.670;23.316;2023-11-18T03:02:29;2.42;;;2.22;;
9773;SDS011;4926;42.670;23.316;2023-11-18T03:04:56;2.42;;;2.22;;
9773;SDS011;4926;42.670;23.316;2023-11-18T03:07:23;2.42;;;2.22;;
9773;SDS011;4926;42.670;23.316;2023-11-18T03:09:52;4.40;;;2.35;;
9773;SDS011;4926;42.670;23.316;2023-11-18T03:12:21;2.45;;;2.25;;
9773;SDS011;4926;42.670;23.316;2023-11-18T03:14:49;2.80;;;2.60;;
9773;SDS011;4926;42.670;23.316;2023-11-18T03:17:16;3.10;;;2.83;;
9773;SDS011;4926;42.670;23.316;2023-11-18T03:19:43;2.88;;;2.58;;
9773;SDS011;4926;42.670;23.316;2023-11-18T03:22:10;2.60;;;2.40;;
9773;SDS011;4926;42.670;23.316;2023-11-18T03:27:24;3.53;;;2.67;;
9773;SDS011;4926;42.670;23.316;2023-11-18T03:29:53;2.72;;;2.53;;
9773;SDS011;4926;42.670;23.316;2023-11-18T03:32:20;3.13;;;2.60;;
9773;SDS011;4926;42.670;23.316;2023-11-18T03:34:46;2.50;;;2.30;;
9773;SDS011;4926;42.670;23.316;2023-11-18T03:37:13;2.75;;;2.55;;
9773;SDS011;4926;42.670;23.316;2023-11-18T03:39:40;3.15;;;2.17;;
9773;SDS011;4926;42.670;23.316;2023-11-18T03:42:08;2.65;;;2.45;;
9773;SDS011;4926;42.670;23.316;2023-11-18T03:44:35;2.65;;;2.45;;
9773;SDS011;4926;42.670;23.316;2023-11-18T03:47:04;2.78;;;2.58;;
9773;SDS011;4926;42.670;23.316;2023-11-18T03:49:32;2.90;;;2.60;;
9773;SDS011;4926;42.670;23.316;2023-11-18T03:52:02;2.55;;;2.30;;
9773;SDS011;4926;42.670;23.316;2023-11-18T03:54:32;2.40;;;2.20;;
9773;SDS011;4926;42.670;23.316;2023-11-18T03:56:58;3.22;;;2.92;;
9773;SDS011;4926;42.670;23.316;2023-11-18T03:59:27;2.80;;;2.60;;
9773;SDS011;4926;42.670;23.316;2023-11-18T04:01:54;3.30;;;2.80;;
9773;SDS011;4926;42.670;23.316;2023-11-18T04:04:24;3.10;;;2.80;;
9773;SDS011;4926;42.670;23.316;2023-11-18T04:06:51;3.30;;;3.10;;
9773;SDS011;4926;42.670;23.316;2023-11-18T04:09:18;4.50;;;3.00;;
9773;SDS011;4926;42.670;23.316;2023-11-18T04:11:45;3.10;;;2.80;;
9773;SDS011;4926;42.670;23.316;2023-11-18T04:14:11;3.92;;;2.85;;
9773;SDS011;4926;42.670;23.316;2023-11-18T04:16:38;2.90;;;2.70;;
9773;SDS011;4926;42.670;23.316;2023-11-18T04:19:05;3.13;;;2.83;;
9773;SDS011;4926;42.670;23.316;2023-11-18T04:21:34;3.28;;;2.97;;
9773;SDS011;4926;42.670;23.316;2023-11-18T04:24:02;2.92;;;2.63;;
9773;SDS011;4926;42.670;23.316;2023-11-18T04:26:30;3.30;;;3.00;;
9773;SDS011;4926;42.670;23.316;2023-11-18T04:28:57;3.20;;;2.90;;
9773;SDS011;4926;42.670;23.316;2023-11-18T04:31:29;3.13;;;2.83;;
9773;SDS011;4926;42.670;23.316;2023-11-18T04:33:56;2.83;;;2.50;;
9773;SDS011;4926;42.670;23.316;2023-11-18T04:36:24;2.95;;;2.63;;
9773;SDS011;4926;42.670;23.316;2023-11-18T04:38:53;2.70;;;2.50;;
9773;SDS011;4926;42.670;23.316;2023-11-18T04:41:26;3.00;;;2.70;;
9773;SDS011;4926;42.670;23.316;2023-11-18T04:43:52;2.72;;;2.53;;
9773;SDS011;4926;42.670;23.316;2023-11-18T04:46:23;3.17;;;2.50;;
9773;SDS011;4926;42.670;23.316;2023-11-18T04:48:51;2.78;;;2.58;;
9773;SDS011;4926;42.670;23.316;2023-11-18T04:51:18;3.15;;;2.70;;
9773;SDS011;4926;42.670;23.316;2023-11-18T04:53:46;2.67;;;2.47;;
9773;SDS011;4926;42.670;23.316;2023-11-18T04:56:14;5.80;;;2.72;;
9773;SDS011;4926;42.670;23.316;2023-11-18T04:58:43;4.85;;;2.88;;
9773;SDS011;4926;42.670;23.316;2023-11-18T05:01:12;2.58;;;2.25;;
9773;SDS011;4926;42.670;23.316;2023-11-18T05:03:38;3.28;;;2.50;;
9773;SDS011;4926;42.670;23.316;2023-11-18T05:06:05;2.58;;;2.38;;
9773;SDS011;4926;42.670;23.316;2023-11-18T05:08:33;2.78;;;2.40;;
9773;SDS011;4926;42.670;23.316;2023-11-18T05:11:02;2.40;;;2.20;;
9773;SDS011;4926;42.670;23.316;2023-11-18T05:13:31;2.55;;;2.35;;
9773;SDS011;4926;42.670;23.316;2023-11-18T05:15:59;2.47;;;2.28;;
9773;SDS011;4926;42.670;23.316;2023-11-18T05:18:26;2.70;;;2.50;;
9773;SDS011;4926;42.670;23.316;2023-11-18T05:20:54;2.60;;;2.40;;
9773;SDS011;4926;42.670;23.316;2023-11-18T05:23:22;1.90;;;1.80;;
9773;SDS011;4926;42.670;23.316;2023-11-18T05:25:49;2.42;;;2.22;;
9773;SDS011;4926;42.670;23.316;2023-11-18T05:28:17;2.47;;;2.28;;
9773;SDS011;4926;42.670;23.316;2023-11-18T05:30:46;2.20;;;2.00;;
9773;SDS011;4926;42.670;23.316;2023-11-18T05:33:13;2.45;;;2.25;;
9773;SDS011;4926;42.670;23.316;2023-11-18T05:35:42;2.10;;;1.90;;
9773;SDS011;4926;42.670;23.316;2023-11-18T05:38:16;2.60;;;1.95;;
9773;SDS011;4926;42.670;23.316;2023-11-18T05:40:44;1.77;;;1.67;;
9773;SDS011;4926;42.670;23.316;2023-11-18T05:43:21;1.60;;;1.50;;
9773;SDS011;4926;42.670;23.316;2023-11-18T05:45:51;1.70;;;1.60;;
9773;SDS011;4926;42.670;23.316;2023-11-18T05:48:37;1.50;;;1.40;;
9773;SDS011;4926;42.670;23.316;2023-11-18T05:51:07;1.70;;;1.60;;
9773;SDS011;4926;42.670;23.316;2023-11-18T05:53:33;1.60;;;1.50;;
9773;SDS011;4926;42.670;23.316;2023-11-18T05:56:01;1.73;;;1.50;;
9773;SDS011;4926;42.670;23.316;2023-11-18T05:58:29;1.70;;;1.60;;
9773;SDS011;4926;42.670;23.316;2023-11-18T06:00:58;1.70;;;1.60;;
9773;SDS011;4926;42.670;23.316;2023-11-18T06:03:25;3.83;;;1.38;;
9773;SDS011;4926;42.670;23.316;2023-11-18T06:05:52;1.65;;;1.50;;
9773;SDS011;4926;42.670;23.316;2023-11-18T06:08:19;1.48;;;1.35;;
9773;SDS011;4926;42.670;23.316;2023-11-18T06:10:47;1.05;;;1.02;;
9773;SDS011;4926;42.670;23.316;2023-11-18T06:13:21;1.60;;;1.50;;
9773;SDS011;4926;42.670;23.316;2023-11-18T06:15:52;2.03;;;1.73;;
9773;SDS011;4926;42.670;23.316;2023-11-18T06:18:22;1.35;;;1.25;;
9773;SDS011;4926;42.670;23.316;2023-11-18T06:20:48;1.58;;;1.23;;
9773;SDS011;4926;42.670;23.316;2023-11-18T06:23:18;1.48;;;1.23;;
9773;SDS011;4926;42.670;23.316;2023-11-18T06:25:46;1.38;;;1.10;;
9773;SDS011;4926;42.670;23.316;2023-11-18T06:28:13;1.42;;;1.33;;
9773;SDS011;4926;42.670;23.316;2023-11-18T06:30:40;1.77;;;1.20;;
9773;SDS011;4926;42.670;23.316;2023-11-18T06:33:07;1.40;;;1.30;;
9773;SDS011;4926;42.670;23.316;2023-11-18T06:35:41;1.20;;;0.90;;
9773;SDS011;4926;42.670;23.316;2023-11-18T06:38:07;0.93;;;0.93;;
9773;SDS011;4926;42.670;23.316;2023-11-18T06:40:38;1.45;;;1.27;;
9773;SDS011;4926;42.670;23.316;2023-11-18T06:43:05;2.35;;;1.48;;
9773;SDS011;4926;42.670;23.316;2023-11-18T06:45:36;1.30;;;1.20;;
9773;SDS011;4926;42.670;23.316;2023-11-18T06:48:04;2.35;;;1.15;;
9773;SDS011;4926;42.670;23.316;2023-11-18T06:50:31;1.15;;;1.05;;
9773;SDS011;4926;42.670;23.316;2023-11-18T06:53:01;1.60;;;1.40;;
9773;SDS011;4926;42.670;23.316;2023-11-18T06:55:31;1.13;;;1.02;;
9773;SDS011;4926;42.670;23.316;2023-11-18T06:58:00;1.60;;;1.27;;
9773;SDS011;4926;42.670;23.316;2023-11-18T07:00:27;1.20;;;1.10;;
9773;SDS011;4926;42.670;23.316;2023-11-18T07:02:54;1.10;;;1.00;;
9773;SDS011;4926;42.670;23.316;2023-11-18T07:05:22;2.78;;;1.10;;
9773;SDS011;4926;42.670;23.316;2023-11-18T07:07:49;0.90;;;0.75;;
9773;SDS011;4926;42.670;23.316;2023-11-18T07:10:18;2.55;;;1.20;;
9773;SDS011;4926;42.670;23.316;2023-11-18T07:12:46;1.02;;;0.98;;
9773;SDS011;4926;42.670;23.316;2023-11-18T07:15:17;4.97;;;1.50;;
9773;SDS011;4926;42.670;23.316;2023-11-18T07:17:49;1.10;;;1.00;;
9773;SDS011;4926;42.670;23.316;2023-11-18T07:20:16;2.05;;;1.20;;
9773;SDS011;4926;42.670;23.316;2023-11-18T07:22:43;1.10;;;1.00;;
9773;SDS011;4926;42.670;23.316;2023-11-18T07:25:14;1.38;;;1.27;;
9773;SDS011;4926;42.670;23.316;2023-11-18T07:27:44;1.05;;;0.98;;
9773;SDS011;4926;42.670;23.316;2023-11-18T07:30:11;1.35;;;0.88;;
9773;SDS011;4926;42.670;23.316;2023-11-18T07:32:39;1.95;;;1.00;;
9773;SDS011;4926;42.670;23.316;2023-11-18T07:35:06;1.20;;;1.10;;
9773;SDS011;4926;42.670;23.316;2023-11-18T07:37:34;3.13;;;0.95;;
9773;SDS011;4926;42.670;23.316;2023-11-18T07:40:07;0.90;;;0.90;;
9773;SDS011;4926;42.670;23.316;2023-11-18T07:42:37;2.60;;;1.20;;
9773;SDS011;4926;42.670;23.316;2023-11-18T07:45:05;1.65;;;1.20;;
9773;SDS011;4926;42.670;23.316;2023-11-18T07:47:42;1.25;;;1.15;;
9773;SDS011;4926;42.670;23.316;2023-11-18T07:50:09;1.15;;;1.05;;
9773;SDS011;4926;42.670;23.316;2023-11-18T07:52:38;1.13;;;1.05;;
9773;SDS011;4926;42.670;23.316;2023-11-18T07:55:05;1.10;;;1.00;;
9773;SDS011;4926;42.670;23.316;2023-11-18T07:57:36;1.33;;;1.20;;
9773;SDS011;4926;42.670;23.316;2023-11-18T08:00:10;1.30;;;1.20;;
9773;SDS011;4926;42.670;23.316;2023-11-18T08:02:40;1.02;;;0.93;;
9773;SDS011;4926;42.670;23.316;2023-11-18T08:05:07;1.65;;;1.13;;
9773;SDS011;4926;42.670;23.316;2023-11-18T08:07:34;1.20;;;1.10;;
9773;SDS011;4926;42.670;23.316;2023-11-18T08:10:01;1.17;;;0.93;;
9773;SDS011;4926;42.670;23.316;2023-11-18T08:12:32;1.30;;;1.20;;
9773;SDS011;4926;42.670;23.316;2023-11-18T08:15:00;1.40;;;1.30;;
9773;SDS011;4926;42.670;23.316;2023-11-18T08:17:29;1.45;;;1.20;;
9773;SDS011;4926;42.670;23.316;2023-11-18T08:19:57;1.10;;;1.00;;
9773;SDS011;4926;42.670;23.316;2023-11-18T08:22:25;1.80;;;1.20;;
9773;SDS011;4926;42.670;23.316;2023-11-18T08:24:52;1.38;;;1.27;;
9773;SDS011;4926;42.670;23.316;2023-11-18T08:27:21;3.00;;;0.75;;
9773;SDS011;4926;42.670;23.316;2023-11-18T08:29:48;1.88;;;1.20;;
9773;SDS011;4926;42.670;23.316;2023-11-18T08:32:18;1.25;;;1.00;;
9773;SDS011;4926;42.670;23.316;2023-11-18T08:34:51;1.10;;;1.00;;
9773;SDS011;4926;42.670;23.316;2023-11-18T08:37:19;2.50;;;1.00;;
9773;SDS011;4926;42.670;23.316;2023-11-18T08:39:46;1.10;;;1.00;;
9773;SDS011;4926;42.670;23.316;2023-11-18T08:42:13;1.67;;;1.20;;
9773;SDS011;4926;42.670;23.316;2023-11-18T08:44:44;1.65;;;1.15;;
9773;SDS011;4926;42.670;23.316;2023-11-18T08:47:13;2.05;;;1.50;;
9773;SDS011;4926;42.670;23.316;2023-11-18T08:49:44;1.30;;;1.20;;
9773;SDS011;4926;42.670;23.316;2023-11-18T08:52:12;1.10;;;1.00;;
9773;SDS011;4926;42.670;23.316;2023-11-18T08:54:39;4.25;;;1.20;;
9773;SDS011;4926;42.670;23.316;2023-11-18T08:57:26;1.20;;;1.00;;
9773;SDS011;4926;42.670;23.316;2023-11-18T09:00:04;1.20;;;1.10;;
9773;SDS011;4926;42.670;23.316;2023-11-18T09:02:33;1.25;;;1.15;;
9773;SDS011;4926;42.670;23.316;2023-11-18T09:05:02;1.48;;;1.38;;
9773;SDS011;4926;42.670;23.316;2023-11-18T09:07:39;1.67;;;1.50;;
9773;SDS011;4926;42.670;23.316;2023-11-18T09:10:13;3.35;;;1.40;;
9773;SDS011;4926;42.670;23.316;2023-11-18T09:12:42;1.40;;;1.27;;
9773;SDS011;4926;42.670;23.316;2023-11-18T09:15:10;2.00;;;1.40;;
9773;SDS011;4926;42.670;23.316;2023-11-18T09:17:43;1.63;;;1.52;;
9773;SDS011;4926;42.670;23.316;2023-11-18T09:20:13;1.20;;;1.08;;
9773;SDS011;4926;42.670;23.316;2023-11-18T09:22:44;1.27;;;1.17;;
9773;SDS011;4926;42.670;23.316;2023-11-18T09:25:11;1.63;;;1.30;;
9773;SDS011;4926;42.670;23.316;2023-11-18T09:27:38;2.67;;;1.50;;
9773;SDS011;4926;42.670;23.316;2023-11-18T09:30:05;1.25;;;1.13;;
9773;SDS011;4926;42.670;23.316;2023-11-18T09:32:38;1.42;;;1.33;;
9773;SDS011;4926;42.670;23.316;2023-11-18T09:35:07;1.20;;;1.10;;
9773;SDS011;4926;42.670;23.316;2023-11-18T09:37:38;2.17;;;1.20;;
9773;SDS011;4926;42.670;23.316;2023-11-18T09:40:08;2.05;;;1.40;;
9773;SDS011;4926;42.670;23.316;2023-11-18T09:42:39;1.27;;;1.17;;
9773;SDS011;4926;42.670;23.316;2023-11-18T09:45:09;2.45;;;1.27;;
9773;SDS011;4926;42.670;23.316;2023-11-18T09:47:45;1.50;;;1.40;;
9773;SDS011;4926;42.670;23.316;2023-11-18T09:50:14;1.63;;;1.48;;
9773;SDS011;4926;42.670;23.316;2023-11-18T09:52:47;1.63;;;1.52;;
9773;SDS011;4926;42.670;23.316;2023-11-18T09:55:21;1.63;;;1.48;;
9773;SDS011;4926;42.670;23.316;2023-11-18T09:58:09;1.60;;;1.50;;
9773;SDS011;4926;42.670;23.316;2023-11-18T10:00:42;2.67;;;1.80;;
9773;SDS011;4926;42.670;23.316;2023-11-18T10:03:09;2.35;;;1.52;;
9773;SDS011;4926;42.670;23.316;2023-11-18T10:05:42;1.92;;;1.50;;
9773;SDS011;4926;42.670;23.316;2023-11-18T10:08:10;1.30;;;1.20;;
9773;SDS011;4926;42.670;23.316;2023-11-18T10:10:42;1.38;;;1.27;;
9773;SDS011;4926;42.670;23.316;2023-11-18T10:13:11;2.40;;;1.45;;
9773;SDS011;4926;42.670;23.316;2023-11-18T10:15:46;1.58;;;1.30;;
9773;SDS011;4926;42.670;23.316;2023-11-18T10:18:20;5.45;;;3.00;;
9773;SDS011;4926;42.670;23.316;2023-11-18T10:20:48;2.55;;;1.90;;
9773;SDS011;4926;42.670;23.316;2023-11-18T10:23:19;2.35;;;1.25;;
9773;SDS011;4926;42.670;23.316;2023-11-18T10:25:51;1.77;;;1.40;;
9773;SDS011;4926;42.670;23.316;2023-11-18T10:28:22;2.20;;;1.77;;
9773;SDS011;4926;42.670;23.316;2023-11-18T10:30:52;2.20;;;1.58;;
9773;SDS011;4926;42.670;23.316;2023-11-18T10:33:19;2.35;;;1.65;;
9773;SDS011;4926;42.670;23.316;2023-11-18T10:35:48;1.58;;;1.48;;
9773;SDS011;4926;42.670;23.316;2023-11-18T10:38:21;2.05;;;1.55;;
9773;SDS011;4926;42.670;23.316;2023-11-18T10:40:51;1.48;;;1.33;;
9773;SDS011;4926;42.670;23.316;2023-11-18T10:43:22;1.60;;;1.40;;
9773;SDS011;4926;42.670;23.316;2023-11-18T10:45:54;2.40;;;1.48;;
9773;SDS011;4926;42.670;23.316;2023-11-18T10:48:37;2.03;;;1.52;;
9773;SDS011;4926;42.670;23.316;2023-11-18T10:51:08;3.47;;;1.65;;
9773;SDS011;4926;42.670;23.316;2023-11-18T10:53:38;1.20;;;1.10;;
9773;SDS011;4926;42.670;23.316;2023-11-18T10:56:19;1.60;;;1.50;;
9773;SDS011;4926;42.670;23.316;2023-11-18T10:58:51;2.58;;;1.92;;
9773;SDS011;4926;42.670;23.316;2023-11-18T11:01:29;2.10;;;1.40;;
9773;SDS011;4926;42.670;23.316;2023-11-18T11:03:57;1.20;;;1.10;;
9773;SDS011;4926;42.670;23.316;2023-11-18T11:06:25;1.20;;;1.10;;
9773;SDS011;4926;42.670;23.316;2023-11-18T11:08:55;3.67;;;1.30;;
9773;SDS011;4926;42.670;23.316;2023-11-18T11:11:25;1.13;;;1.08;;
9773;SDS011;4926;42.670;23.316;2023-11-18T11:13:56;2.95;;;1.20;;
9773;SDS011;4926;42.670;23.316;2023-11-18T11:16:27;1.10;;;1.00;;
9773;SDS011;4926;42.670;23.316;2023-11-18T11:19:00;5.07;;;1.20;;
9773;SDS011;4926;42.670;23.316;2023-11-18T11:21:33;1.60;;;1.40;;
9773;SDS011;4926;42.670;23.316;2023-11-18T11:24:15;2.60;;;1.63;;
9773;SDS011;4926;42.670;23.316;2023-11-18T11:27:01;2.28;;;1.63;;
9773;SDS011;4926;42.670;23.316;2023-11-18T11:29:45;1.90;;;1.50;;
9773;SDS011;4926;42.670;23.316;2023-11-18T11:32:18;3.15;;;2.10;;
9773;SDS011;4926;42.670;23.316;2023-11-18T11:34:56;1.90;;;1.70;;
9773;SDS011;4926;42.670;23.316;2023-11-18T11:37:30;2.20;;;1.83;;
9773;SDS011;4926;42.670;23.316;2023-11-18T11:39:59;1.35;;;1.20;;
9773;SDS011;4926;42.670;23.316;2023-11-18T11:42:39;2.00;;;1.50;;
9773;SDS011;4926;42.670;23.316;2023-11-18T11:45:08;1.23;;;1.10;;
9773;SDS011;4926;42.670;23.316;2023-11-18T11:47:45;1.30;;;1.10;;
9773;SDS011;4926;42.670;23.316;2023-11-18T11:50:16;1.75;;;1.33;;
9773;SDS011;4926;42.670;23.316;2023-11-18T11:52:58;1.98;;;1.48;;
9773;SDS011;4926;42.670;23.316;2023-11-18T11:55:33;3.65;;;1.42;;
9773;SDS011;4926;42.670;23.316;2023-11-18T12:00:54;2.58;;;1.40;;
9773;SDS011;4926;42.670;23.316;2023-11-18T12:03:21;1.42;;;1.20;;
9773;SDS011;4926;42.670;23.316;2023-11-18T12:05:49;4.32;;;1.40;;
9773;SDS011;4926;42.670;23.316;2023-11-18T12:08:17;2.08;;;1.50;;
9773;SDS011;4926;42.670;23.316;2023-11-18T12:10:51;1.60;;;1.50;;
9773;SDS011;4926;42.670;23.316;2023-11-18T12:13:21;1.40;;;1.30;;
9773;SDS011;4926;42.670;23.316;2023-11-18T12:15:55;1.90;;;1.70;;
9773;SDS011;4926;42.670;23.316;2023-11-18T12:18:23;2.35;;;1.80;;
9773;SDS011;4926;42.670;23.316;2023-11-18T12:20:50;1.33;;;1.23;;
9773;SDS011;4926;42.670;23.316;2023-11-18T12:23:21;2.28;;;1.60;;
9773;SDS011;4926;42.670;23.316;2023-11-18T12:25:49;2.55;;;1.92;;
9773;SDS011;4926;42.670;23.316;2023-11-18T12:28:19;2.22;;;1.73;;
9773;SDS011;4926;42.670;23.316;2023-11-18T12:30:52;4.20;;;2.60;;
9773;SDS011;4926;42.670;23.316;2023-11-18T12:33:23;1.52;;;1.10;;
9773;SDS011;4926;42.670;23.316;2023-11-18T12:36:15;3.47;;;2.55;;
9773;SDS011;4926;42.670;23.316;2023-11-18T12:42:07;1.80;;;1.40;;
9773;SDS011;4926;42.670;23.316;2023-11-18T12:44:46;1.88;;;1.40;;
9773;SDS011;4926;42.670;23.316;2023-11-18T12:47:31;1.50;;;1.40;;
9773;SDS011;4926;42.670;23.316;2023-11-18T12:50:07;1.83;;;1.52;;
9773;SDS011;4926;42.670;23.316;2023-11-18T12:52:42;2.67;;;1.60;;
9773;SDS011;4926;42.670;23.316;2023-11-18T12:55:13;1.70;;;1.55;;
9773;SDS011;4926;42.670;23.316;2023-11-18T12:57:45;1.70;;;1.60;;
9773;SDS011;4926;42.670;23.316;2023-11-18T13:00:13;1.63;;;1.25;;
9773;SDS011;4926;42.670;23.316;2023-11-18T13:02:51;1.40;;;1.30;;
9773;SDS011;4926;42.670;23.316;2023-11-18T13:05:20;1.67;;;1.55;;
9773;SDS011;4926;42.670;23.316;2023-11-18T13:07:47;2.25;;;1.90;;
9773;SDS011;4926;42.670;23.316;2023-11-18T13:10:14;1.58;;;1.48;;
9773;SDS011;4926;42.670;23.316;2023-11-18T13:12:41;1.73;;;1.58;;
9773;SDS011;4926;42.670;23.316;2023-11-18T13:15:12;1.85;;;1.70;;
9773;SDS011;4926;42.670;23.316;2023-11-18T13:17:56;1.48;;;1.38;;
9773;SDS011;4926;42.670;23.316;2023-11-18T13:20:34;1.70;;;1.60;;
9773;SDS011;4926;42.670;23.316;2023-11-18T13:23:02;2.78;;;1.67;;
9773;SDS011;4926;42.670;23.316;2023-11-18T13:25:34;2.10;;;1.90;;
9773;SDS011;4926;42.670;23.316;2023-11-18T13:28:03;1.92;;;1.77;;
9773;SDS011;4926;42.670;23.316;2023-11-18T13:30:35;2.45;;;1.85;;
9773;SDS011;4926;42.670;23.316;2023-11-18T13:33:02;2.03;;;1.70;;
9773;SDS011;4926;42.670;23.316;2023-11-18T13:35:30;1.60;;;1.50;;
9773;SDS011;4926;42.670;23.316;2023-11-18T13:37:57;1.70;;;1.60;;
9773;SDS011;4926;42.670;23.316;2023-11-18T13:40:24;2.70;;;2.22;;
9773;SDS011;4926;42.670;23.316;2023-11-18T13:43:03;3.08;;;1.85;;
9773;SDS011;4926;42.670;23.316;2023-11-18T13:45:33;2.33;;;2.00;;
9773;SDS011;4926;42.670;23.316;2023-11-18T13:48:01;2.75;;;2.50;;
9773;SDS011;4926;42.670;23.316;2023-11-18T13:50:29;1.23;;;1.13;;
9773;SDS011;4926;42.670;23.316;2023-11-18T13:52:57;2.20;;;1.60;;
9773;SDS011;4926;42.670;23.316;2023-11-18T13:55:23;2.25;;;2.00;;
9773;SDS011;4926;42.670;23.316;2023-11-18T13:57:53;2.30;;;1.90;;
9773;SDS011;4926;42.670;23.316;2023-11-18T14:00:29;2.63;;;2.20;;
9773;SDS011;4926;42.670;23.316;2023-11-18T14:02:57;1.80;;;1.50;;
9773;SDS011;4926;42.670;23.316;2023-11-18T14:05:24;3.95;;;2.60;;
9773;SDS011;4926;42.670;23.316;2023-11-18T14:07:53;3.97;;;1.98;;
9773;SDS011;4926;42.670;23.316;2023-11-18T14:10:21;2.47;;;2.20;;
9773;SDS011;4926;42.670;23.316;2023-11-18T14:13:00;4.35;;;2.83;;
9773;SDS011;4926;42.670;23.316;2023-11-18T14:15:30;3.05;;;2.20;;
9773;SDS011;4926;42.670;23.316;2023-11-18T14:18:00;2.60;;;2.40;;
9773;SDS011;4926;42.670;23.316;2023-11-18T14:20:29;2.90;;;2.40;;
9773;SDS011;4926;42.670;23.316;2023-11-18T14:22:57;2.63;;;2.08;;
9773;SDS011;4926;42.670;23.316;2023-11-18T14:25:26;3.08;;;2.20;;
9773;SDS011;4926;42.670;23.316;2023-11-18T14:27:54;2.90;;;2.40;;
9773;SDS011;4926;42.670;23.316;2023-11-18T14:30:24;2.42;;;2.22;;
9773;SDS011;4926;42.670;23.316;2023-11-18T14:32:51;3.00;;;2.70;;
9773;SDS011;4926;42.670;23.316;2023-11-18T14:35:18;2.97;;;2.20;;
9773;SDS011;4926;42.670;23.316;2023-11-18T14:37:45;2.47;;;2.28;;
9773;SDS011;4926;42.670;23.316;2023-11-18T14:40:14;2.72;;;2.53;;
9773;SDS011;4926;42.670;23.316;2023-11-18T14:42:51;3.50;;;2.40;;
9773;SDS011;4926;42.670;23.316;2023-11-18T14:45:18;3.63;;;3.00;;
9773;SDS011;4926;42.670;23.316;2023-11-18T14:47:45;5.07;;;3.00;;
9773;SDS011;4926;42.670;23.316;2023-11-18T14:50:13;3.03;;;2.72;;
9773;SDS011;4926;42.670;23.316;2023-11-18T14:52:44;2.92;;;2.63;;
9773;SDS011;4926;42.670;23.316;2023-11-18T14:55:16;3.13;;;2.83;;
9773;SDS011;4926;42.670;23.316;2023-11-18T14:57:43;2.38;;;2.00;;
9773;SDS011;4926;42.670;23.316;2023-11-18T15:00:12;3.22;;;2.85;;
9773;SDS011;4926;42.670;23.316;2023-11-18T15:02:47;3.00;;;2.70;;
9773;SDS011;4926;42.670;23.316;2023-11-18T15:05:14;3.40;;;2.90;;
9773;SDS011;4926;42.670;23.316;2023-11-18T15:07:43;3.50;;;2.38;;
9773;SDS011;4926;42.670;23.316;2023-11-18T15:10:14;3.28;;;2.97;;
9773;SDS011;4926;42.670;23.316;2023-11-18T15:12:46;2.88;;;2.60;;
9773;SDS011;4926;42.670;23.316;2023-11-18T15:15:14;2.35;;;2.15;;
9773;SDS011;4926;42.670;23.316;2023-11-18T15:17:46;3.10;;;2.80;;
9773;SDS011;4926;42.670;23.316;2023-11-18T15:20:14;3.13;;;2.83;;
9773;SDS011;4926;42.670;23.316;2023-11-18T15:22:43;3.00;;;2.70;;
9773;SDS011;4926;42.670;23.316;2023-11-18T15:25:11;3.40;;;3.10;;